Time;durP1;ratioP1;P1;durP2;ratioP2;P2;SDS_P1;SDS_P2;PMS_P1;PMS_P2;Temp;Humidity;BMP_temperature;BMP_pressure;BME280_temperature;BME280_humidity;BME280_pressure;Samples;Min_cycle;Max_cycle;Signal;HPM_P1;HPM_P2
2023/04/05 00:00:55;;;;;;;14.27;13.30;;;1.10;99.90;;;;;;4858921;29;20998;-76
2023/04/05 00:03:22;;;;;;;12.80;11.90;;;1.00;99.90;;;;;;4858632;29;20471;-76
2023/04/05 00:05:49;;;;;;;12.20;11.60;;;1.10;99.90;;;;;;4859208;29;20483;-75
2023/04/05 00:08:22;;;;;;;11.33;10.30;;;1.20;99.90;;;;;;4859258;29;20490;-75
2023/04/05 00:10:49;;;;;;;11.43;10.63;;;1.30;99.90;;;;;;4859155;29;20473;-75
2023/04/05 00:13:17;;;;;;;12.23;10.70;;;1.40;99.90;;;;;;4858810;29;20506;-76
2023/04/05 00:15:44;;;;;;;12.13;11.23;;;1.40;99.90;;;;;;4859318;29;20463;-76
2023/04/05 00:18:20;;;;;;;12.37;11.30;;;1.30;99.90;;;;;;4859453;29;20459;-76
2023/04/05 00:20:48;;;;;;;12.63;11.63;;;1.30;99.90;;;;;;4858884;29;21042;-76
2023/04/05 00:23:15;;;;;;;13.23;12.33;;;1.30;99.90;;;;;;4859198;29;20489;-76
2023/04/05 00:25:42;;;;;;;13.27;12.30;;;1.20;99.90;;;;;;4859123;29;20473;-75
2023/04/05 00:28:09;;;;;;;14.47;13.53;;;1.20;99.90;;;;;;4859098;29;20460;-76
2023/04/05 00:30:37;;;;;;;11.47;10.73;;;1.30;99.90;;;;;;4858682;29;20464;-76
2023/04/05 00:33:04;;;;;;;13.40;12.40;;;1.40;99.90;;;;;;4858250;29;20492;-75
2023/04/05 00:35:31;;;;;;;14.47;13.37;;;1.40;99.90;;;;;;4858649;29;20468;-74
2023/04/05 00:37:58;;;;;;;13.37;12.33;;;1.50;99.90;;;;;;4858811;29;20551;-74
2023/04/05 00:40:25;;;;;;;11.70;10.80;;;1.50;99.90;;;;;;4858756;29;20464;-73
2023/04/05 00:42:51;;;;;;;11.77;10.87;;;1.60;99.90;;;;;;4858119;29;20848;-73
2023/04/05 00:45:18;;;;;;;11.83;11.03;;;1.50;99.90;;;;;;4858480;29;20465;-75
2023/04/05 00:47:46;;;;;;;11.60;10.80;;;1.40;99.90;;;;;;4858590;29;20464;-75
2023/04/05 00:50:14;;;;;;;12.20;11.20;;;1.40;99.90;;;;;;4858316;29;20865;-75
2023/04/05 00:52:43;;;;;;;14.10;13.00;;;1.40;99.90;;;;;;4858599;29;20856;-75
2023/04/05 00:55:10;;;;;;;13.70;12.60;;;1.40;99.90;;;;;;4858882;29;20467;-75
2023/04/05 00:57:38;;;;;;;12.10;11.37;;;1.40;99.90;;;;;;4858421;29;20461;-75
2023/04/05 01:00:08;;;;;;;11.30;10.60;;;1.40;99.90;;;;;;4857933;29;20846;-75
2023/04/05 01:02:44;;;;;;;12.23;10.97;;;1.40;99.90;;;;;;4858218;29;20516;-76
2023/04/05 01:05:23;;;;;;;13.03;11.90;;;1.30;99.90;;;;;;4858151;29;20471;-74
2023/04/05 01:07:57;;;;;;;13.83;12.73;;;1.20;99.90;;;;;;4858288;29;20461;-73
2023/04/05 01:10:30;;;;;;;14.87;13.90;;;1.10;99.90;;;;;;4858399;29;20484;-74
2023/04/05 01:12:56;;;;;;;14.00;12.90;;;0.90;99.90;;;;;;4858119;29;20503;-74
2023/04/05 01:15:23;;;;;;;13.10;12.20;;;1.00;99.90;;;;;;4858064;29;20470;-75
2023/04/05 01:17:52;;;;;;;14.40;13.40;;;1.00;99.90;;;;;;4857803;29;20520;-75
2023/04/05 01:20:24;;;;;;;13.43;12.33;;;1.00;99.90;;;;;;4857935;29;20870;-75
2023/04/05 01:23:17;;;;;;;13.60;12.50;;;1.00;99.90;;;;;;4857759;29;20468;-75
2023/04/05 01:26:04;;;;;;;14.87;13.77;;;1.10;99.90;;;;;;4858061;29;20457;-75
2023/04/05 01:28:56;;;;;;;15.27;14.17;;;1.00;99.90;;;;;;4857656;29;20525;-76
2023/04/05 01:31:31;;;;;;;12.50;11.70;;;0.90;99.90;;;;;;4857872;29;20804;-75
2023/04/05 01:34:02;;;;;;;14.97;13.67;;;0.90;99.90;;;;;;4858023;29;20480;-75
2023/04/05 01:36:34;;;;;;;12.97;12.03;;;0.80;99.90;;;;;;4857798;29;20460;-75
2023/04/05 01:39:04;;;;;;;13.17;12.00;;;0.70;99.90;;;;;;4857810;29;20455;-75
2023/04/05 01:41:31;;;;;;;18.17;16.77;;;0.80;99.90;;;;;;4857443;29;20453;-76
2023/04/05 01:43:57;;;;;;;13.37;12.07;;;0.80;99.90;;;;;;4857832;29;20804;-76
2023/04/05 01:46:25;;;;;;;14.83;13.63;;;0.80;99.90;;;;;;4857780;29;20471;-75
2023/04/05 01:48:52;;;;;;;15.03;13.60;;;0.80;99.90;;;;;;4857396;29;20472;-74
2023/04/05 01:51:19;;;;;;;14.33;13.13;;;0.80;99.90;;;;;;4856940;29;20453;-75
2023/04/05 01:53:46;;;;;;;14.50;13.10;;;0.70;99.90;;;;;;4857254;29;20583;-74
2023/04/05 01:56:13;;;;;;;14.50;13.40;;;0.70;99.90;;;;;;4857246;29;20458;-74
2023/04/05 01:58:39;;;;;;;17.47;14.63;;;0.80;99.90;;;;;;4857357;29;20480;-75
2023/04/05 02:01:06;;;;;;;16.83;15.63;;;0.80;99.90;;;;;;4856728;29;20558;-75
2023/04/05 02:03:35;;;;;;;17.80;15.90;;;0.70;99.90;;;;;;4871907;29;20465;-75
2023/04/05 02:06:01;;;;;;;14.07;13.07;;;0.70;99.90;;;;;;4875798;29;20458;-76
2023/04/05 02:08:28;;;;;;;17.23;15.53;;;0.70;99.90;;;;;;4875745;29;20937;-75
2023/04/05 02:10:55;;;;;;;17.57;16.17;;;0.70;99.90;;;;;;4875584;29;20461;-75
2023/04/05 02:13:22;;;;;;;16.70;15.37;;;0.70;99.90;;;;;;4875600;29;20525;-76
2023/04/05 02:15:49;;;;;;;17.30;15.90;;;0.60;99.90;;;;;;4875114;29;20509;-76
2023/04/05 02:18:20;;;;;;;16.60;14.97;;;0.60;99.90;;;;;;4875333;29;20482;-76
2023/04/05 02:20:49;;;;;;;15.03;13.93;;;0.70;99.90;;;;;;4875427;29;20464;-76
2023/04/05 02:23:15;;;;;;;20.07;18.40;;;0.70;99.90;;;;;;4875750;29;20458;-74
2023/04/05 02:25:42;;;;;;;18.43;16.90;;;0.70;99.90;;;;;;4875999;29;20507;-77
2023/04/05 02:28:09;;;;;;;21.00;19.17;;;0.60;99.90;;;;;;4875416;29;20522;-77
2023/04/05 02:30:35;;;;;;;17.93;16.53;;;0.60;99.90;;;;;;4874661;29;20938;-76
2023/04/05 02:33:02;;;;;;;18.37;16.87;;;0.50;99.90;;;;;;4874996;29;21038;-76
2023/04/05 02:35:29;;;;;;;18.23;16.77;;;0.60;99.90;;;;;;4875488;29;20457;-76
2023/04/05 02:37:57;;;;;;;18.73;16.87;;;0.50;99.90;;;;;;4875315;29;20460;-77
2023/04/05 02:40:24;;;;;;;19.60;17.83;;;0.50;99.90;;;;;;4875508;29;20786;-75
2023/04/05 02:42:50;;;;;;;17.47;15.97;;;0.50;99.90;;;;;;4875021;29;20453;-75
2023/04/05 02:45:17;;;;;;;21.77;19.70;;;0.50;99.90;;;;;;4875748;29;20460;-75
2023/04/05 02:47:44;;;;;;;21.00;18.57;;;0.60;99.90;;;;;;4875520;29;20462;-76
2023/04/05 02:50:11;;;;;;;22.13;20.10;;;0.50;99.90;;;;;;4875839;29;20465;-76
2023/04/05 02:52:37;;;;;;;18.70;17.10;;;0.60;99.90;;;;;;4875253;29;20840;-76
2023/04/05 02:55:06;;;;;;;17.40;16.00;;;0.60;99.90;;;;;;4875037;29;20460;-76
2023/04/05 02:57:33;;;;;;;19.57;17.67;;;0.60;99.90;;;;;;4875065;29;20463;-76
2023/04/05 03:00:00;;;;;;;18.83;17.20;;;0.50;99.90;;;;;;4874193;29;20481;-76
2023/04/05 03:02:27;;;;;;;18.43;16.63;;;0.60;99.90;;;;;;4874710;29;20472;-76
2023/04/05 03:04:53;;;;;;;18.50;16.60;;;0.60;99.90;;;;;;4874827;29;20554;-76
2023/04/05 03:07:20;;;;;;;20.03;18.03;;;0.50;99.90;;;;;;4874935;29;20470;-75
2023/04/05 03:09:47;;;;;;;19.90;18.00;;;0.40;99.90;;;;;;4874762;29;20457;-75
2023/04/05 03:12:15;;;;;;;20.93;19.00;;;0.30;99.90;;;;;;4874513;29;20541;-75
2023/04/05 03:14:42;;;;;;;21.83;20.00;;;0.20;99.90;;;;;;4875066;29;20496;-75
2023/04/05 03:17:09;;;;;;;20.70;19.13;;;0.10;99.90;;;;;;4875252;29;20470;-75
2023/04/05 03:19:36;;;;;;;20.13;18.33;;;0.10;99.90;;;;;;4874891;29;20460;-75
2023/04/05 03:22:03;;;;;;;20.73;18.53;;;0.10;99.90;;;;;;4874834;29;20531;-76
2023/04/05 03:24:30;;;;;;;18.77;17.20;;;0.10;99.90;;;;;;4875092;29;20458;-76
2023/04/05 03:26:58;;;;;;;20.60;18.40;;;0.10;99.90;;;;;;4876670;29;20466;-76
2023/04/05 03:29:26;;;;;;;21.37;19.67;;;0.10;99.90;;;;;;4878887;29;20463;-76
2023/04/05 03:31:53;;;;;;;22.30;20.20;;;0.00;99.90;;;;;;4878105;29;20879;-76
2023/04/05 03:34:21;;;;;;;20.87;19.20;;;-0.10;99.90;;;;;;4877808;29;20875;-76
2023/04/05 03:36:48;;;;;;;20.23;18.23;;;-0.20;99.90;;;;;;4878040;29;20876;-76
2023/04/05 03:39:15;;;;;;;23.17;20.87;;;-0.20;99.90;;;;;;4877811;29;20453;-76
2023/04/05 03:41:42;;;;;;;20.40;18.60;;;-0.30;99.90;;;;;;4878033;29;20458;-76
2023/04/05 03:44:09;;;;;;;22.53;20.07;;;-0.50;99.90;;;;;;4877884;29;21208;-77
2023/04/05 03:46:37;;;;;;;22.80;21.00;;;-0.50;99.90;;;;;;4877522;29;20516;-75
2023/04/05 03:49:04;;;;;;;22.00;20.10;;;-0.40;99.90;;;;;;4877727;29;20461;-75
2023/04/05 03:51:32;;;;;;;20.60;18.50;;;-0.40;99.90;;;;;;4877882;29;20817;-76
2023/04/05 03:53:59;;;;;;;20.87;18.90;;;-0.40;99.90;;;;;;4878066;29;20500;-75
2023/04/05 03:56:26;;;;;;;20.00;18.27;;;-0.40;99.90;;;;;;4878418;29;20468;-75
2023/04/05 03:58:53;;;;;;;21.40;19.50;;;-0.60;99.90;;;;;;4877904;29;20491;-75
2023/04/05 04:01:20;;;;;;;20.53;18.60;;;-0.70;99.90;;;;;;4877703;29;20481;-77
2023/04/05 04:03:48;;;;;;;18.20;16.70;;;-0.70;99.90;;;;;;4878032;29;20715;-76
2023/04/05 04:06:15;;;;;;;19.47;17.67;;;-0.60;99.90;;;;;;4878159;29;20459;-74
2023/04/05 04:08:42;;;;;;;21.00;19.10;;;-0.60;99.90;;;;;;4878228;29;20891;-74
2023/04/05 04:11:10;;;;;;;20.53;18.43;;;-0.60;99.90;;;;;;4878237;29;20467;-74
2023/04/05 04:13:36;;;;;;;34.40;20.53;;;-0.60;99.90;;;;;;4877827;29;20492;-75
2023/04/05 04:16:03;;;;;;;21.50;19.30;;;-0.60;99.90;;;;;;4877729;29;20451;-75
2023/04/05 04:18:30;;;;;;;19.87;18.17;;;-0.60;99.90;;;;;;4877770;29;20994;-75
2023/04/05 04:20:58;;;;;;;21.23;19.33;;;-0.70;99.90;;;;;;4878024;29;20948;-75
2023/04/05 04:23:26;;;;;;;22.60;20.50;;;-0.70;99.90;;;;;;4876906;29;20539;-75
2023/04/05 04:25:53;;;;;;;21.87;19.97;;;-0.80;99.90;;;;;;4876747;29;20476;-76
2023/04/05 04:28:20;;;;;;;20.43;18.70;;;-0.80;99.90;;;;;;4876533;29;20456;-77
2023/04/05 04:30:47;;;;;;;21.53;19.53;;;-0.90;99.90;;;;;;4876627;29;21128;-76
2023/04/05 04:33:13;;;;;;;19.00;17.20;;;-0.80;99.90;;;;;;4876988;29;20507;-76
2023/04/05 04:35:41;;;;;;;21.10;19.07;;;-0.90;99.90;;;;;;4877221;29;20468;-76
2023/04/05 04:38:09;;;;;;;21.80;19.73;;;-1.00;99.90;;;;;;4876225;29;20456;-76
2023/04/05 04:40:38;;;;;;;20.80;18.87;;;-1.00;99.90;;;;;;4876443;29;20464;-75
2023/04/05 04:43:05;;;;;;;21.57;19.87;;;-1.10;99.90;;;;;;4876414;29;20488;-76
2023/04/05 04:45:33;;;;;;;25.33;23.10;;;-1.20;99.90;;;;;;4876468;29;20795;-76
2023/04/05 04:48:02;;;;;;;27.73;20.17;;;-1.20;99.90;;;;;;4876367;29;20468;-76
2023/04/05 04:50:28;;;;;;;24.03;21.73;;;-1.20;99.90;;;;;;4876457;29;20468;-75
2023/04/05 04:52:55;;;;;;;21.90;20.00;;;-1.20;99.90;;;;;;4876648;29;20472;-76
2023/04/05 04:55:24;;;;;;;22.17;20.47;;;-1.10;99.90;;;;;;4876350;29;20499;-75
2023/04/05 04:57:52;;;;;;;23.40;21.20;;;-1.00;99.90;;;;;;4876126;29;20460;-75
2023/04/05 05:00:20;;;;;;;22.43;20.13;;;-1.10;99.90;;;;;;4876104;29;20527;-74
2023/04/05 05:02:47;;;;;;;24.00;21.60;;;-1.20;99.90;;;;;;4876033;29;20576;-76
2023/04/05 05:05:14;;;;;;;24.50;22.43;;;-1.20;99.90;;;;;;4876186;29;20869;-75
2023/04/05 05:07:41;;;;;;;23.70;21.30;;;-1.20;99.90;;;;;;4876364;29;20467;-75
2023/04/05 05:10:09;;;;;;;32.30;22.43;;;-1.10;99.90;;;;;;4876282;29;20508;-75
2023/04/05 05:12:37;;;;;;;22.20;20.10;;;-1.10;99.90;;;;;;4875825;29;20837;-76
2023/04/05 05:15:05;;;;;;;22.87;20.77;;;-0.90;99.90;;;;;;4875780;29;20571;-75
2023/04/05 05:17:33;;;;;;;22.53;20.63;;;-0.90;99.90;;;;;;4875711;29;20586;-75
2023/04/05 05:20:00;;;;;;;24.30;22.17;;;-0.90;99.90;;;;;;4875792;29;20464;-76
2023/04/05 05:22:27;;;;;;;24.97;21.60;;;-0.90;99.90;;;;;;4876245;29;20463;-76
2023/04/05 05:24:54;;;;;;;28.37;20.47;;;-0.80;99.90;;;;;;4876025;29;20450;-76
2023/04/05 05:27:21;;;;;;;26.83;22.77;;;-0.80;99.90;;;;;;4875823;29;20505;-76
2023/04/05 05:29:49;;;;;;;22.93;20.93;;;-0.70;99.90;;;;;;4875819;29;21030;-76
2023/04/05 05:32:16;;;;;;;21.20;19.10;;;-0.60;99.90;;;;;;4875844;29;20456;-75
2023/04/05 05:34:43;;;;;;;22.90;20.60;;;-0.60;99.90;;;;;;4875687;29;20504;-75
2023/04/05 05:37:10;;;;;;;23.20;21.07;;;-0.50;99.90;;;;;;4876080;29;20460;-75
2023/04/05 05:39:37;;;;;;;23.20;21.23;;;-0.40;99.90;;;;;;4875839;29;20469;-75
2023/04/05 05:42:04;;;;;;;25.20;22.50;;;-0.30;99.90;;;;;;4875485;29;20908;-75
2023/04/05 05:44:31;;;;;;;28.73;21.20;;;-0.20;99.90;;;;;;4870053;29;20534;-75
2023/04/05 05:46:59;;;;;;;26.37;21.53;;;-0.10;99.90;;;;;;4875141;29;20474;-75
2023/04/05 05:49:25;;;;;;;24.10;21.40;;;0.00;99.90;;;;;;4881413;29;20582;-73
2023/04/05 05:51:52;;;;;;;21.30;19.37;;;0.40;99.90;;;;;;4882245;29;20797;-74
2023/04/05 05:54:19;;;;;;;22.20;20.20;;;1.00;99.90;;;;;;4883592;29;20578;-74
2023/04/05 05:56:46;;;;;;;21.00;18.97;;;1.60;99.90;;;;;;4883554;29;20456;-75
2023/04/05 05:59:13;;;;;;;20.70;18.67;;;2.20;99.90;;;;;;4882051;29;20879;-74
2023/04/05 06:01:41;;;;;;;24.17;16.70;;;2.80;99.90;;;;;;4883392;29;20486;-75
2023/04/05 06:04:09;;;;;;;16.87;15.40;;;3.10;99.90;;;;;;4883876;29;20542;-75
2023/04/05 06:06:36;;;;;;;19.30;17.70;;;3.40;99.90;;;;;;4879755;29;20461;-75
2023/04/05 06:09:03;;;;;;;20.00;18.10;;;3.80;99.90;;;;;;4882818;29;20461;-73
2023/04/05 06:11:29;;;;;;;19.40;17.83;;;4.30;99.90;;;;;;4883712;29;20479;-73
2023/04/05 06:13:56;;;;;;;18.50;17.10;;;4.50;99.90;;;;;;4881201;29;20937;-75
2023/04/05 06:16:23;;;;;;;16.27;15.17;;;4.80;99.90;;;;;;4883033;29;20568;-74
2023/04/05 06:18:50;;;;;;;18.47;17.03;;;5.00;99.90;;;;;;4882095;29;21521;-75
2023/04/05 06:21:18;;;;;;;18.83;16.93;;;5.20;99.90;;;;;;4879694;29;20821;-74
2023/04/05 06:23:45;;;;;;;19.33;17.70;;;5.50;99.90;;;;;;4882794;29;20450;-74
2023/04/05 06:26:17;;;;;;;17.83;15.87;;;5.90;99.60;;;;;;4884146;29;20458;-75
2023/04/05 06:28:46;;;;;;;31.67;20.40;;;6.20;98.50;;;;;;4883005;29;20634;-75
2023/04/05 06:31:13;;;;;;;20.07;18.33;;;6.50;98.10;;;;;;4881677;29;20512;-74
2023/04/05 06:33:40;;;;;;;21.40;19.60;;;6.70;97.20;;;;;;4891602;29;20448;-74
2023/04/05 06:36:07;;;;;;;23.70;21.50;;;7.00;96.60;;;;;;4886745;29;20530;-75
2023/04/05 06:38:35;;;;;;;22.73;20.53;;;7.40;95.60;;;;;;4883084;29;20451;-76
2023/04/05 06:41:02;;;;;;;23.20;21.10;;;7.70;94.80;;;;;;4883218;29;20483;-75
2023/04/05 06:43:29;;;;;;;23.17;21.17;;;8.20;93.40;;;;;;4881152;29;20877;-74
2023/04/05 06:45:56;;;;;;;22.37;20.50;;;8.40;92.00;;;;;;4879733;29;20448;-76
2023/04/05 06:48:23;;;;;;;23.77;21.33;;;8.30;91.80;;;;;;4883435;29;21065;-74
2023/04/05 06:50:57;;;;;;;23.60;21.70;;;8.20;91.60;;;;;;4879824;29;20445;-73
2023/04/05 06:53:26;;;;;;;26.40;21.67;;;8.20;91.60;;;;;;4880775;29;20469;-73
2023/04/05 17:26:15;;;;;;;14.63;13.60;;;9.60;47.70;;;;;;6000806;23;20932;31
2023/04/05 17:28:46;;;;;;;12.20;11.30;;;9.60;48.10;;;;;;4818079;29;20465;-71
2023/04/05 17:31:12;;;;;;;12.70;11.80;;;9.60;48.20;;;;;;4818538;29;20458;-71
2023/04/05 17:33:39;;;;;;;11.67;11.07;;;9.50;48.20;;;;;;4820655;29;20458;-71
2023/04/05 17:36:06;;;;;;;10.90;10.20;;;9.40;48.10;;;;;;4818867;29;20504;-72
2023/04/05 17:38:33;;;;;;;13.73;12.63;;;9.30;48.40;;;;;;4818229;29;20471;-71
2023/04/05 17:41:00;;;;;;;13.20;12.00;;;9.30;49.00;;;;;;4818263;29;20475;-72
2023/04/05 17:43:26;;;;;;;13.73;12.57;;;9.20;49.20;;;;;;4818387;29;20823;-72
2023/04/05 17:45:55;;;;;;;14.50;13.40;;;9.20;49.20;;;;;;4819006;29;20450;-72
2023/04/05 17:48:21;;;;;;;14.43;13.23;;;9.10;49.70;;;;;;4820509;29;20463;-72
2023/04/05 17:50:48;;;;;;;12.20;11.20;;;9.00;50.10;;;;;;4819518;29;20482;-72
2023/04/05 17:53:15;;;;;;;12.50;11.40;;;8.90;50.00;;;;;;4819901;29;20458;-71
2023/04/05 17:55:42;;;;;;;12.90;12.00;;;8.80;50.40;;;;;;4820498;29;20568;-71
2023/04/05 17:58:09;;;;;;;12.90;11.77;;;8.80;51.20;;;;;;4820528;29;20471;-72
2023/04/05 18:00:35;;;;;;;12.30;11.40;;;8.70;51.70;;;;;;4818650;29;20627;-73
2023/04/05 18:03:04;;;;;;;12.37;11.57;;;8.60;52.50;;;;;;4816126;29;20485;-72
2023/04/05 18:05:31;;;;;;;13.20;12.00;;;8.50;53.40;;;;;;4819338;29;20469;-73
2023/04/05 18:07:58;;;;;;;14.60;13.20;;;8.30;54.00;;;;;;4817246;29;20814;-71
2023/04/05 18:10:25;;;;;;;13.53;12.40;;;8.30;54.90;;;;;;4819834;29;20450;-72
2023/04/05 18:12:51;;;;;;;14.10;12.87;;;8.30;55.30;;;;;;4820029;29;20474;-73
2023/04/05 18:15:19;;;;;;;14.30;13.20;;;8.20;55.90;;;;;;4819313;29;20502;-72
2023/04/05 18:17:46;;;;;;;12.87;11.87;;;8.00;56.90;;;;;;4819654;29;20459;-71
2023/04/05 18:20:14;;;;;;;13.43;12.43;;;7.90;58.10;;;;;;4819507;29;20507;-73
2023/04/05 18:22:40;;;;;;;12.43;11.43;;;7.80;59.50;;;;;;4819624;29;20977;-71
2023/04/05 18:25:10;;;;;;;14.37;12.90;;;7.70;60.00;;;;;;4819739;29;20953;-71
2023/04/05 18:27:37;;;;;;;13.80;12.77;;;7.60;60.50;;;;;;4844638;29;21043;-72
2023/04/05 18:30:04;;;;;;;14.60;13.50;;;7.50;61.20;;;;;;4855927;29;20456;-72
2023/04/05 18:32:31;;;;;;;14.53;13.20;;;7.40;61.90;;;;;;4855706;29;20481;-73
2023/04/05 18:34:57;;;;;;;12.00;11.20;;;7.40;62.70;;;;;;4855859;29;20604;-71
2023/04/05 18:37:26;;;;;;;13.43;12.53;;;7.30;63.00;;;;;;4855900;29;20449;-72
2023/04/05 18:39:52;;;;;;;14.17;12.90;;;7.20;63.50;;;;;;4853575;29;20548;-72
2023/04/05 18:42:19;;;;;;;12.97;12.00;;;7.10;63.90;;;;;;4853468;29;20465;-72
2023/04/05 18:44:46;;;;;;;13.57;12.53;;;7.00;64.30;;;;;;4855026;29;20456;-72
2023/04/05 18:47:13;;;;;;;14.80;13.70;;;6.90;65.00;;;;;;4853337;29;20456;-72
2023/04/05 18:49:39;;;;;;;15.03;13.93;;;6.80;66.20;;;;;;4855909;29;20449;-72
2023/04/05 18:52:06;;;;;;;13.80;12.70;;;6.80;67.20;;;;;;4855642;29;20970;-73
2023/04/05 18:54:34;;;;;;;15.97;14.80;;;6.70;68.00;;;;;;4853209;29;20453;-73
2023/04/05 18:57:01;;;;;;;14.60;13.40;;;6.60;69.70;;;;;;4855248;29;20489;-71
2023/04/05 18:59:28;;;;;;;14.00;12.67;;;6.50;69.70;;;;;;4858873;29;21255;-72
2023/04/05 19:01:55;;;;;;;14.67;13.63;;;6.50;70.70;;;;;;4859074;29;20484;-71
2023/04/05 19:04:21;;;;;;;15.30;14.20;;;6.40;70.50;;;;;;4859389;29;20449;-72
2023/04/05 19:06:48;;;;;;;14.50;13.50;;;6.30;71.60;;;;;;4859377;29;21069;-72
2023/04/05 19:09:16;;;;;;;14.40;13.40;;;6.20;72.70;;;;;;4858721;29;20468;-72
2023/04/05 19:11:44;;;;;;;14.50;13.40;;;6.30;72.60;;;;;;4856157;29;20955;-72
2023/04/05 19:14:10;;;;;;;16.60;15.00;;;6.20;72.80;;;;;;4858775;29;20454;-72
2023/04/05 19:16:37;;;;;;;13.10;12.20;;;6.00;73.70;;;;;;4858574;29;20564;-73
2023/04/05 19:19:04;;;;;;;13.50;12.40;;;5.90;74.70;;;;;;4858878;29;20905;-73
2023/04/05 19:21:31;;;;;;;13.50;12.50;;;5.90;74.70;;;;;;4858386;29;20452;-73
2023/04/05 19:23:58;;;;;;;14.00;12.90;;;5.90;75.30;;;;;;4858222;29;20513;-72
2023/04/05 19:26:24;;;;;;;13.50;12.20;;;5.80;76.20;;;;;;4857942;29;20486;-71
2023/04/05 19:28:53;;;;;;;13.13;11.97;;;5.70;78.40;;;;;;4858432;29;20462;-73
2023/04/05 19:31:20;;;;;;;13.43;12.23;;;5.70;80.80;;;;;;4858714;29;20985;-73
2023/04/05 19:33:47;;;;;;;14.40;13.10;;;5.60;83.70;;;;;;4858364;29;20922;-73
2023/04/05 19:36:14;;;;;;;14.60;13.27;;;5.50;86.50;;;;;;4858027;29;20520;-73
2023/04/05 19:38:41;;;;;;;15.00;13.80;;;5.50;88.80;;;;;;4855684;29;20452;-72
2023/04/05 19:41:07;;;;;;;15.13;13.67;;;5.40;90.40;;;;;;4858157;29;20483;-72
2023/04/05 19:43:35;;;;;;;15.60;14.00;;;5.30;91.50;;;;;;4858562;29;20827;-72
2023/04/05 19:46:08;;;;;;;17.10;15.90;;;5.30;91.90;;;;;;4859278;29;20460;-71
2023/04/05 19:48:37;;;;;;;14.70;12.70;;;5.20;91.70;;;;;;4857884;29;20457;-72
2023/04/05 19:51:05;;;;;;;12.53;11.73;;;5.30;91.20;;;;;;4856208;29;20534;-72
2023/04/05 19:53:43;;;;;;;14.87;13.53;;;5.20;90.60;;;;;;4855229;29;20453;-72
2023/04/05 19:56:12;;;;;;;16.20;14.60;;;5.30;91.40;;;;;;4857642;29;20493;-71
2023/04/05 19:58:39;;;;;;;15.53;14.47;;;5.20;92.30;;;;;;4857690;29;20951;-73
2023/04/05 20:01:07;;;;;;;14.00;12.80;;;5.10;92.40;;;;;;4858040;29;20484;-71
2023/04/05 20:03:36;;;;;;;13.40;12.30;;;5.00;92.70;;;;;;4855669;29;20448;-72
2023/04/05 20:06:05;;;;;;;14.37;13.00;;;4.90;93.10;;;;;;4858225;29;20937;-74
2023/04/05 20:08:34;;;;;;;16.17;15.07;;;4.70;94.90;;;;;;4857984;29;20455;-74
2023/04/05 20:11:03;;;;;;;13.60;12.60;;;4.60;95.00;;;;;;4858132;29;20472;-72
2023/04/05 20:13:29;;;;;;;14.37;13.27;;;4.60;96.10;;;;;;4859045;29;20966;-74
2023/04/05 20:15:56;;;;;;;13.60;12.40;;;4.50;95.50;;;;;;4858943;29;20523;-76
2023/04/05 20:18:26;;;;;;;13.67;12.47;;;4.40;95.70;;;;;;4858964;29;20467;-74
2023/04/05 20:20:54;;;;;;;16.80;13.63;;;4.40;96.90;;;;;;4855755;29;20828;-76
2023/04/05 20:23:22;;;;;;;13.57;12.53;;;4.30;96.80;;;;;;4858250;29;20557;-74
2023/04/05 20:25:50;;;;;;;14.57;13.33;;;4.20;96.90;;;;;;4857959;29;20468;-73
2023/04/05 20:28:32;;;;;;;13.80;12.03;;;4.10;97.70;;;;;;4857607;29;20505;-73
2023/04/05 20:30:59;;;;;;;16.33;14.83;;;4.00;98.50;;;;;;4857682;29;20458;-74
2023/04/05 20:33:47;;;;;;;13.57;12.27;;;4.10;99.10;;;;;;4857604;29;20785;-72
2023/04/05 20:36:17;;;;;;;14.60;13.60;;;4.10;98.60;;;;;;4855572;29;20499;-72
2023/04/05 20:38:45;;;;;;;13.90;12.90;;;4.00;98.70;;;;;;4857658;29;20755;-72
2023/04/05 20:41:13;;;;;;;16.10;14.70;;;3.90;98.70;;;;;;4857606;29;20464;-72
2023/04/05 20:43:41;;;;;;;14.27;12.90;;;3.70;99.20;;;;;;4857519;29;20449;-72
2023/04/05 20:46:08;;;;;;;14.70;13.40;;;3.60;99.80;;;;;;4857592;29;20449;-73
2023/04/05 20:48:36;;;;;;;14.73;13.40;;;3.50;99.90;;;;;;4857609;29;20556;-72
2023/04/05 20:56:15;;;;;;;16.07;14.77;;;3.60;99.90;;;;;;4924264;23;20288;-74
2023/04/05 20:58:42;;;;;;;15.20;14.07;;;3.60;99.90;;;;;;4895792;29;20488;-74
2023/04/05 21:01:10;;;;;;;17.03;15.33;;;3.60;99.90;;;;;;4895945;29;20515;-73
2023/04/05 21:03:38;;;;;;;14.70;13.10;;;3.40;99.90;;;;;;4895934;29;20522;-73
2023/04/05 21:06:07;;;;;;;14.83;13.43;;;3.50;99.90;;;;;;4895706;29;20825;-73
2023/04/05 21:08:34;;;;;;;13.90;13.00;;;3.50;99.90;;;;;;4895354;29;20609;-73
2023/04/05 21:11:01;;;;;;;14.80;13.70;;;3.40;99.90;;;;;;4895096;29;20460;-73
2023/04/05 21:13:29;;;;;;;17.93;14.77;;;3.40;99.90;;;;;;4895696;29;20874;-74
2023/04/05 21:15:57;;;;;;;17.00;15.60;;;3.40;99.90;;;;;;4895286;29;20498;-73
2023/04/05 21:18:24;;;;;;;16.10;14.57;;;3.50;99.90;;;;;;4895169;29;20459;-74
2023/04/05 21:20:52;;;;;;;15.10;13.90;;;3.40;99.90;;;;;;4894529;29;20503;-74
2023/04/05 21:23:21;;;;;;;15.20;13.77;;;3.20;99.90;;;;;;4894803;29;20456;-74
2023/04/05 21:25:48;;;;;;;16.13;14.77;;;3.20;99.90;;;;;;4894895;29;20439;-75
2023/04/05 21:28:16;;;;;;;14.87;13.67;;;3.30;99.90;;;;;;4894895;29;20464;-74
2023/04/05 21:30:44;;;;;;;16.50;15.10;;;3.50;99.90;;;;;;4892718;29;20542;-73
2023/04/05 21:33:11;;;;;;;14.83;13.63;;;3.50;99.90;;;;;;4894958;29;20991;-74
2023/04/05 21:35:38;;;;;;;15.33;14.10;;;3.60;99.90;;;;;;4894673;29;20448;-74
2023/04/05 21:38:05;;;;;;;15.37;14.10;;;3.70;99.90;;;;;;4894633;29;20452;-73
2023/04/05 21:40:32;;;;;;;16.40;15.00;;;3.80;99.90;;;;;;4894559;29;20646;-75
2023/04/05 21:42:59;;;;;;;16.53;14.90;;;3.80;99.90;;;;;;4894620;29;20455;-74
2023/04/05 21:45:26;;;;;;;17.50;16.20;;;3.90;99.90;;;;;;4894799;29;20459;-73
2023/04/05 21:47:54;;;;;;;16.27;14.67;;;3.90;99.90;;;;;;4894647;29;20450;-73
2023/04/05 21:50:22;;;;;;;18.40;16.50;;;4.00;99.90;;;;;;4892058;29;20459;-74
2023/04/05 21:52:48;;;;;;;15.10;13.50;;;4.00;99.90;;;;;;4891791;29;20570;-73
2023/04/05 21:55:15;;;;;;;16.30;14.70;;;4.00;99.90;;;;;;4875465;29;20494;-73
2023/04/05 21:57:42;;;;;;;17.10;15.40;;;4.00;99.90;;;;;;4873223;29;20491;-73
2023/04/05 22:00:10;;;;;;;16.40;14.73;;;3.90;99.90;;;;;;4875782;29;20459;-72
2023/04/05 22:02:37;;;;;;;16.40;14.90;;;3.80;99.90;;;;;;4875557;29;20513;-72
2023/04/05 22:05:06;;;;;;;16.37;14.83;;;3.60;99.90;;;;;;4875530;29;20515;-73
2023/04/05 22:07:33;;;;;;;15.67;14.17;;;3.60;99.90;;;;;;4875479;29;20445;-73
2023/04/05 22:09:59;;;;;;;17.83;16.43;;;3.60;99.90;;;;;;4875392;29;20509;-73
2023/04/05 22:12:26;;;;;;;18.50;16.83;;;3.60;99.90;;;;;;4875800;29;20449;-73
2023/04/05 22:14:53;;;;;;;18.40;16.47;;;3.40;99.90;;;;;;4875595;29;20450;-72
2023/04/05 22:17:20;;;;;;;24.57;21.90;;;3.40;99.90;;;;;;4875400;29;20487;-73
2023/04/05 22:19:47;;;;;;;17.83;16.33;;;3.40;99.90;;;;;;4875368;29;20449;-74
2023/04/05 22:22:16;;;;;;;16.47;15.07;;;3.30;99.90;;;;;;4875550;29;20480;-72
2023/04/05 22:24:43;;;;;;;16.50;14.90;;;3.10;99.90;;;;;;4873311;29;20455;-72
2023/04/05 22:27:11;;;;;;;16.07;14.87;;;2.90;99.90;;;;;;4875800;29;20457;-74
2023/04/05 22:29:38;;;;;;;16.47;15.13;;;2.80;99.90;;;;;;4875336;29;20459;-73
2023/04/05 22:32:05;;;;;;;17.03;15.70;;;2.80;99.90;;;;;;4874525;29;20459;-74
2023/04/05 22:34:32;;;;;;;17.03;15.73;;;2.70;99.90;;;;;;4875219;29;20547;-73
2023/04/05 22:36:59;;;;;;;16.27;14.73;;;2.50;99.90;;;;;;4875153;29;20498;-72
2023/04/05 22:39:27;;;;;;;17.93;16.23;;;2.40;99.90;;;;;;4875521;29;20448;-74
2023/04/05 22:41:55;;;;;;;18.00;15.97;;;2.30;99.90;;;;;;4875466;29;20444;-73
2023/04/05 22:44:22;;;;;;;18.17;16.43;;;2.30;99.90;;;;;;4872872;29;20535;-74
2023/04/05 22:46:48;;;;;;;18.43;16.17;;;2.30;99.90;;;;;;4875171;29;20459;-73
2023/04/05 22:49:15;;;;;;;19.17;17.30;;;2.20;99.90;;;;;;4875046;29;20456;-73
2023/04/05 22:51:42;;;;;;;17.23;15.93;;;2.20;99.90;;;;;;4872971;29;20458;-73
2023/04/05 22:54:08;;;;;;;17.27;15.83;;;2.10;99.90;;;;;;4875060;29;20476;-73
2023/04/05 22:56:36;;;;;;;18.87;16.60;;;2.20;99.90;;;;;;4875151;29;20495;-72
2023/04/05 22:59:03;;;;;;;17.37;15.97;;;2.30;99.90;;;;;;4872896;29;20448;-74
2023/04/05 23:01:30;;;;;;;19.63;17.93;;;2.30;99.90;;;;;;4875192;29;20453;-73
2023/04/05 23:03:57;;;;;;;18.60;16.80;;;2.40;99.90;;;;;;4875351;29;20491;-73
2023/04/05 23:06:23;;;;;;;17.57;15.67;;;2.40;99.90;;;;;;4875285;29;20456;-73
2023/04/05 23:08:50;;;;;;;19.73;17.50;;;2.30;99.90;;;;;;4874924;29;20457;-74
2023/04/05 23:11:17;;;;;;;21.73;17.23;;;2.30;99.90;;;;;;4874914;29;20574;-74
2023/04/05 23:13:45;;;;;;;17.50;15.70;;;2.40;99.90;;;;;;4875180;29;20446;-75